Time;durP1;ratioP1;P1;durP2;ratioP2;P2;SDS_P1;SDS_P2;PMS_P1;PMS_P2;Temp;Humidity;BMP_temperature;BMP_pressure;BME280_temperature;BME280_humidity;BME280_pressure;Samples;Min_cycle;Max_cycle;Signal;HPM_P1;HPM_P2
2022/12/24 00:01:54;;;;;;;;;;;;;;;10.55;76.89;97271.88;5057665;28;19924;-62
2022/12/24 00:04:22;;;;;;;;;;;;;;;10.58;76.87;97273.91;5058770;28;19969;-63
2022/12/24 00:06:51;;;;;;;;;;;;;;;10.47;77.14;97282.41;5062739;28;19925;-62
2022/12/24 00:09:20;;;;;;;;;;;;;;;10.49;77.68;97269.34;5063435;28;19925;-62
2022/12/24 00:11:48;;;;;;;;;;;;;;;10.46;77.42;97275.41;5052939;28;19935;-66
2022/12/24 00:14:15;;;;;;;;;;;;;;;10.52;77.47;97275.22;5055691;28;19928;-67
2022/12/24 00:16:45;;;;;;;;;;;;;;;10.54;77.30;97281.13;5057821;28;20266;-62
2022/12/24 00:19:13;;;;;;;;;;;;;;;10.55;77.14;97277.31;5059975;28;19925;-62
2022/12/24 00:21:43;;;;;;;;;;;;;;;10.39;77.97;97296.06;5054092;28;20305;-66
2022/12/24 00:24:11;;;;;;;;;;;;;;;10.44;78.38;97299.38;5058063;28;19929;-62
2022/12/24 00:26:39;;;;;;;;;;;;;;;10.44;77.67;97296.66;5087418;28;19981;-64
2022/12/24 00:29:12;;;;;;;;;;;;;;;10.55;77.31;97299.81;5080723;28;19924;-62
2022/12/24 00:31:40;;;;;;;;;;;;;;;10.48;77.43;97294.88;5096235;28;19928;-63
2022/12/24 00:34:10;;;;;;;;;;;;;;;10.43;77.53;97300.47;5096567;28;19924;-62
2022/12/24 00:36:38;;;;;;;;;;;;;;;10.49;76.99;97306.53;5109291;28;20285;-62
2022/12/24 00:41:57;;;;;;;;;;;;;;;10.56;75.78;97300.63;5075452;28;19942;-62
2022/12/24 00:44:25;;;;;;;;;;;;;;;10.52;76.32;97313.25;5100753;28;20399;-64
2022/12/24 00:46:53;;;;;;;;;;;;;;;10.48;76.06;97315.81;5099869;28;19924;-64
2022/12/24 00:49:23;;;;;;;;;;;;;;;10.54;75.40;97319.13;5096812;28;19973;-62
2022/12/24 00:51:51;;;;;;;;;;;;;;;10.48;75.71;97310.38;5108979;28;19959;-62
2022/12/24 00:54:19;;;;;;;;;;;;;;;10.52;75.17;97318.69;5105103;28;20377;-62
2022/12/24 00:56:50;;;;;;;;;;;;;;;10.46;75.59;97318.84;5095576;28;19924;-62
2022/12/24 00:59:18;;;;;;;;;;;;;;;10.36;76.13;97321.13;5102881;28;19927;-62
2022/12/24 01:01:46;;;;;;;;;;;;;;;10.29;76.71;97318.91;5101366;28;20380;-62
2022/12/24 01:07:01;;;;;;;;;;;;;;;10.47;74.49;97328.59;5104989;28;20365;-64
2022/12/24 01:09:30;;;;;;;;;;;;;;;10.45;74.17;97336.28;5104571;28;19955;-62
2022/12/24 01:11:58;;;;;;;;;;;;;;;10.43;73.96;97340.41;5078629;28;19931;-62
2022/12/24 01:14:26;;;;;;;;;;;;;;;10.36;74.01;97340.13;5081632;28;20296;-62
2022/12/24 01:16:53;;;;;;;;;;;;;;;10.28;74.16;97333.63;5088999;28;20303;-64
2022/12/24 01:19:24;;;;;;;;;;;;;;;10.18;74.92;97344.78;5099292;28;20012;-63
2022/12/24 01:21:52;;;;;;;;;;;;;;;10.19;74.26;97351.78;5101258;28;20363;-62
2022/12/24 01:24:22;;;;;;;;;;;;;;;10.13;74.19;97358.53;5106815;28;19924;-65
2022/12/24 01:26:50;;;;;;;;;;;;;;;10.19;73.85;97362.66;5098143;28;19931;-62
2022/12/24 01:29:18;;;;;;;;;;;;;;;10.10;73.89;97370.00;5107340;28;19981;-62
2022/12/24 01:31:46;;;;;;;;;;;;;;;10.04;74.46;97371.28;5084664;28;19924;-66
2022/12/24 01:34:14;;;;;;;;;;;;;;;9.94;74.51;97370.50;5088039;28;19923;-62
2022/12/24 01:36:42;;;;;;;;;;;;;;;10.14;72.26;97374.47;5094710;28;19975;-62
2022/12/24 01:39:35;;;;;;;;;;;;;;;10.08;73.11;97383.91;5105613;28;19924;-62
2022/12/24 01:45:13;;;;;;;;;;;;;;;9.94;72.67;97391.41;5103756;28;19924;-62
2022/12/24 01:48:06;;;;;;;;;;;;;;;9.94;72.23;97397.63;5106370;28;20345;-62
2022/12/24 01:50:35;;;;;;;;;;;;;;;9.94;72.07;97400.34;5091372;28;19928;-62
2022/12/24 01:53:03;;;;;;;;;;;;;;;9.81;72.36;97406.72;5103252;28;20343;-62
2022/12/24 01:55:56;;;;;;;;;;;;;;;9.77;72.31;97405.75;5102612;27;20439;-62
2022/12/24 01:58:28;;;;;;;;;;;;;;;9.69;72.67;97399.22;5098691;28;20415;-65
2022/12/24 02:00:58;;;;;;;;;;;;;;;9.77;72.15;97407.69;5095110;28;19924;-63
2022/12/24 02:03:26;;;;;;;;;;;;;;;9.73;72.37;97409.44;5092296;28;19971;-63
2022/12/24 02:08:46;;;;;;;;;;;;;;;9.76;72.56;97420.44;5097073;28;20010;-62
2022/12/24 02:11:15;;;;;;;;;;;;;;;9.84;71.96;97421.56;5086250;28;19924;-62
2022/12/24 02:13:46;;;;;;;;;;;;;;;9.71;72.86;97429.53;5092102;28;19925;-65
2022/12/24 02:16:18;;;;;;;;;;;;;;;9.63;72.81;97434.94;5083237;28;19923;-63
2022/12/24 02:18:47;;;;;;;;;;;;;;;9.64;73.36;97439.25;5102485;28;19930;-63
2022/12/24 02:21:23;;;;;;;;;;;;;;;9.69;72.67;97442.63;5078557;28;20440;-64
2022/12/24 02:23:58;;;;;;;;;;;;;;;9.59;73.44;97436.72;5095348;28;19923;-63
2022/12/24 02:26:31;;;;;;;;;;;;;;;9.68;72.07;97448.34;5070650;28;19932;-63
2022/12/24 02:32:01;;;;;;;;;;;;;;;9.79;71.83;97465.91;5054059;28;19925;-63
2022/12/24 02:34:30;;;;;;;;;;;;;;;9.83;71.93;97458.75;5057098;28;19924;-62
2022/12/24 02:39:52;;;;;;;;;;;;;;;9.89;71.71;97460.19;5062435;28;19928;-62
2022/12/24 02:42:20;;;;;;;;;;;;;;;9.77;72.17;97457.31;5057312;28;19983;-62
2022/12/24 02:44:49;;;;;;;;;;;;;;;9.86;72.10;97463.56;5055533;28;19928;-64
2022/12/24 02:47:18;;;;;;;;;;;;;;;9.75;72.32;97466.88;5063740;28;20369;-66
2022/12/24 02:49:47;;;;;;;;;;;;;;;9.76;72.83;97468.47;5072806;28;19924;-62
2022/12/24 02:52:28;;;;;;;;;;;;;;;9.82;72.15;97481.56;5058008;28;19939;-62
2022/12/24 02:55:21;;;;;;;;;;;;;;;9.86;72.19;97479.84;5060260;28;19925;-62
2022/12/24 02:58:01;;;;;;;;;;;;;;;9.76;72.80;97482.84;5049734;28;19928;-63
2022/12/24 03:03:32;;;;;;;;;;;;;;;9.62;73.11;97488.38;5054340;28;19970;-64
2022/12/24 03:06:25;;;;;;;;;;;;;;;9.53;74.30;97484.84;5060619;28;19925;-62
2022/12/24 03:08:54;;;;;;;;;;;;;;;9.58;73.90;97500.97;5066377;28;20289;-63
2022/12/24 03:11:22;;;;;;;;;;;;;;;9.62;73.51;97498.44;5063925;28;20301;-63
2022/12/24 03:13:50;;;;;;;;;;;;;;;9.52;74.15;97510.38;5061180;28;19928;-62
2022/12/24 03:16:19;;;;;;;;;;;;;;;9.44;74.49;97505.72;5062272;28;19936;-61
2022/12/24 03:18:49;;;;;;;;;;;;;;;9.53;74.44;97509.25;5060584;28;19925;-62
2022/12/24 03:21:43;;;;;;;;;;;;;;;9.47;74.72;97509.72;5059985;28;19971;-62
2022/12/24 03:24:11;;;;;;;;;;;;;;;9.35;75.50;97513.03;5060959;28;19925;-63
2022/12/24 03:26:39;;;;;;;;;;;;;;;9.24;76.21;97517.13;5048229;28;19928;-62
2022/12/24 03:29:10;;;;;;;;;;;;;;;9.18;76.99;97521.88;5071772;28;19928;-62
2022/12/24 03:31:43;;;;;;;;;;;;;;;9.16;77.23;97518.66;5064319;28;19978;-63
2022/12/24 03:34:12;;;;;;;;;;;;;;;9.14;77.26;97518.19;5065200;28;20007;-62
2022/12/24 03:36:40;;;;;;;;;;;;;;;9.09;77.70;97521.03;5065002;28;19957;-62
2022/12/24 03:39:34;;;;;;;;;;;;;;;9.10;77.75;97511.78;5059482;28;19932;-62
2022/12/24 03:42:02;;;;;;;;;;;;;;;9.06;78.26;97518.94;5067456;28;19932;-62
2022/12/24 03:44:30;;;;;;;;;;;;;;;9.06;78.49;97516.25;5064721;28;19924;-63
2022/12/24 03:46:58;;;;;;;;;;;;;;;9.01;78.73;97528.00;5061442;28;19955;-63
2022/12/24 03:49:27;;;;;;;;;;;;;;;9.10;78.74;97528.84;5064140;28;19931;-63
2022/12/24 03:51:56;;;;;;;;;;;;;;;9.08;78.51;97546.53;5062167;28;19940;-64
2022/12/24 03:54:25;;;;;;;;;;;;;;;9.03;78.88;97546.66;5058863;28;20390;-62
2022/12/24 03:56:55;;;;;;;;;;;;;;;9.07;78.77;97551.16;5059408;28;19950;-62
2022/12/24 03:59:24;;;;;;;;;;;;;;;9.01;78.97;97557.00;5063363;28;19925;-65
2022/12/24 04:01:52;;;;;;;;;;;;;;;9.10;78.57;97563.25;5059720;28;19925;-62
2022/12/24 04:04:20;;;;;;;;;;;;;;;9.02;78.50;97559.41;5054112;28;19932;-62
2022/12/24 04:06:49;;;;;;;;;;;;;;;9.00;78.79;97566.22;5065865;28;19936;-66
2022/12/24 04:09:17;;;;;;;;;;;;;;;8.91;78.98;97561.56;5055515;28;19970;-62
2022/12/24 04:11:46;;;;;;;;;;;;;;;9.07;77.79;97555.78;5062270;28;19928;-62
2022/12/24 04:14:13;;;;;;;;;;;;;;;8.95;78.42;97555.50;5063110;28;19924;-62
2022/12/24 04:16:41;;;;;;;;;;;;;;;8.88;78.41;97575.72;5060194;28;19929;-63
2022/12/24 04:19:09;;;;;;;;;;;;;;;8.93;78.11;97578.31;5063335;28;19924;-63
2022/12/24 04:21:37;;;;;;;;;;;;;;;9.07;76.51;97580.97;5059809;28;19932;-62
2022/12/24 04:24:07;;;;;;;;;;;;;;;9.05;76.38;97579.66;5056257;28;19929;-62
2022/12/24 04:26:35;;;;;;;;;;;;;;;9.05;76.39;97585.88;5082749;28;19934;-62
2022/12/24 04:29:28;;;;;;;;;;;;;;;9.15;75.52;97580.19;5084966;28;19935;-62
2022/12/24 04:31:56;;;;;;;;;;;;;;;9.10;75.86;97593.06;5083922;28;19928;-62
2022/12/24 04:34:24;;;;;;;;;;;;;;;9.09;75.63;97596.91;5078699;28;19924;-62
2022/12/24 04:37:19;;;;;;;;;;;;;;;9.18;74.89;97595.84;5098177;28;19981;-64
2022/12/24 04:39:49;;;;;;;;;;;;;;;9.13;74.62;97595.97;5093565;28;20012;-62
2022/12/24 04:42:18;;;;;;;;;;;;;;;9.08;74.73;97606.16;5100905;28;19973;-62
2022/12/24 04:44:45;;;;;;;;;;;;;;;9.14;74.34;97599.47;5098011;28;19928;-63
2022/12/24 04:47:13;;;;;;;;;;;;;;;9.12;74.20;97599.00;5098500;28;19963;-62
2022/12/24 04:49:42;;;;;;;;;;;;;;;9.15;74.18;97607.28;5076133;28;19931;-62
2022/12/24 04:52:14;;;;;;;;;;;;;;;9.16;73.72;97602.69;5086422;28;20383;-62
2022/12/24 04:54:42;;;;;;;;;;;;;;;9.11;74.22;97608.25;5103076;28;19924;-68
2022/12/24 04:57:12;;;;;;;;;;;;;;;9.10;73.92;97607.41;5094483;28;19924;-62
2022/12/24 04:59:40;;;;;;;;;;;;;;;9.17;74.35;97607.00;5096152;28;19954;-63
2022/12/24 05:02:08;;;;;;;;;;;;;;;9.04;74.46;97599.72;5101565;28;20133;-65
2022/12/24 05:04:36;;;;;;;;;;;;;;;9.00;74.80;97601.44;5109233;28;19953;-63
2022/12/24 05:07:04;;;;;;;;;;;;;;;8.95;74.94;97602.41;5107064;27;19977;-62
2022/12/24 05:09:36;;;;;;;;;;;;;;;8.96;75.56;97611.31;5089739;28;19940;-63
2022/12/24 05:12:04;;;;;;;;;;;;;;;8.92;75.84;97617.34;5100525;28;19928;-63
2022/12/24 05:14:33;;;;;;;;;;;;;;;9.12;74.29;97616.06;5101442;28;20470;-68
2022/12/24 05:17:04;;;;;;;;;;;;;;;9.19;74.08;97623.75;5075765;28;19924;-66
2022/12/24 05:19:34;;;;;;;;;;;;;;;9.09;74.91;97619.38;5100778;28;19928;-66
2022/12/24 05:27:33;;;;;;;;;;;;;;;9.03;76.21;97623.31;5103210;28;19932;-63
2022/12/24 05:30:02;;;;;;;;;;;;;;;8.99;76.11;97619.63;5079941;28;19924;-65
2022/12/24 05:32:31;;;;;;;;;;;;;;;8.96;76.32;97620.25;5095732;28;20403;-63
2022/12/24 05:34:59;;;;;;;;;;;;;;;9.10;75.93;97631.81;5093985;28;19924;-63
2022/12/24 05:37:27;;;;;;;;;;;;;;;9.09;76.32;97635.63;5093278;28;19954;-62
2022/12/24 05:39:57;;;;;;;;;;;;;;;9.07;76.37;97645.19;5073205;28;19960;-62
2022/12/24 05:42:25;;;;;;;;;;;;;;;9.13;76.04;97638.53;5090015;28;19924;-62
2022/12/24 05:44:54;;;;;;;;;;;;;;;9.25;75.32;97646.91;5095653;28;19923;-62
2022/12/24 05:47:23;;;;;;;;;;;;;;;9.34;75.02;97644.25;5101148;28;19923;-62
2022/12/24 05:49:51;;;;;;;;;;;;;;;9.23;75.94;97649.13;5106109;28;19993;-63
2022/12/24 05:52:19;;;;;;;;;;;;;;;9.19;76.17;97645.44;5099110;28;20296;-63
2022/12/24 05:54:47;;;;;;;;;;;;;;;9.25;76.06;97652.31;5083350;28;19978;-62
2022/12/24 06:00:09;;;;;;;;;;;;;;;9.21;76.44;97648.63;5098942;28;20023;-64
2022/12/24 06:02:40;;;;;;;;;;;;;;;9.11;76.76;97641.56;5092738;28;19930;-62
2022/12/24 06:05:09;;;;;;;;;;;;;;;9.19;76.60;97651.66;5096760;28;19966;-62
2022/12/24 06:07:37;;;;;;;;;;;;;;;9.23;76.37;97654.56;5109966;28;20061;-63
2022/12/24 06:10:06;;;;;;;;;;;;;;;9.18;76.86;97654.69;5100825;28;20075;-62
2022/12/24 06:13:00;;;;;;;;;;;;;;;9.24;76.44;97661.56;5093224;28;19924;-66
2022/12/24 06:15:28;;;;;;;;;;;;;;;9.27;76.36;97660.97;5104983;28;19931;-62
2022/12/24 06:17:57;;;;;;;;;;;;;;;9.25;76.44;97657.75;5077580;28;19924;-62
2022/12/24 06:20:25;;;;;;;;;;;;;;;9.21;76.99;97653.25;5094723;28;19954;-62
2022/12/24 06:22:53;;;;;;;;;;;;;;;9.11;76.48;97643.47;5100386;28;19924;-66
2022/12/24 06:25:21;;;;;;;;;;;;;;;9.24;77.25;97652.66;5102443;28;19932;-63
2022/12/24 06:27:49;;;;;;;;;;;;;;;9.27;76.72;97658.25;5111186;28;19949;-62
2022/12/24 06:30:17;;;;;;;;;;;;;;;9.23;76.87;97670.81;5098326;28;19927;-62
2022/12/24 06:32:46;;;;;;;;;;;;;;;9.25;76.80;97671.31;5076088;28;20265;-63
2022/12/24 06:35:15;;;;;;;;;;;;;;;9.27;76.61;97669.09;5091120;28;19932;-63
2022/12/24 06:37:44;;;;;;;;;;;;;;;9.28;75.92;97673.41;5080444;28;20407;-62
2022/12/24 06:40:12;;;;;;;;;;;;;;;9.35;75.94;97681.09;5105016;28;19930;-62
2022/12/24 06:42:40;;;;;;;;;;;;;;;9.28;76.10;97678.84;5103122;28;19924;-64
2022/12/24 06:45:09;;;;;;;;;;;;;;;9.17;77.47;97681.00;5102754;28;19928;-62
2022/12/24 06:47:41;;;;;;;;;;;;;;;9.33;76.66;97681.41;5096913;28;19951;-62
2022/12/24 06:50:09;;;;;;;;;;;;;;;9.25;76.73;97682.16;5102719;28;19947;-62
2022/12/24 06:52:39;;;;;;;;;;;;;;;9.30;77.05;97679.31;5084754;28;19962;-63
2022/12/24 06:55:08;;;;;;;;;;;;;;;9.21;76.95;97689.28;5089622;28;20299;-62
2022/12/24 06:57:36;;;;;;;;;;;;;;;9.26;76.45;97688.38;5107541;28;19924;-62
2022/12/24 07:00:04;;;;;;;;;;;;;;;9.34;76.70;97691.16;5109591;28;19923;-63
2022/12/24 07:02:33;;;;;;;;;;;;;;;9.25;76.83;97706.53;5107912;28;19924;-62
2022/12/24 07:05:01;;;;;;;;;;;;;;;9.18;77.74;97698.84;5091536;28;20269;-64
2022/12/24 07:07:29;;;;;;;;;;;;;;;9.21;77.68;97700.13;5080929;28;19935;-63
2022/12/24 07:09:59;;;;;;;;;;;;;;;9.27;77.43;97704.34;5083695;28;19931;-62
2022/12/24 07:12:27;;;;;;;;;;;;;;;9.30;77.31;97709.13;5095776;28;19924;-62
2022/12/24 07:14:56;;;;;;;;;;;;;;;9.27;77.42;97711.66;5104557;28;20013;-62
2022/12/24 07:17:29;;;;;;;;;;;;;;;9.30;77.80;97719.19;5098464;28;19947;-62
2022/12/24 07:19:58;;;;;;;;;;;;;;;9.43;76.74;97705.56;5101653;28;19931;-66
2022/12/24 07:22:25;;;;;;;;;;;;;;;9.48;77.13;97720.09;5102763;27;19939;-63
2022/12/24 07:24:53;;;;;;;;;;;;;;;9.35;77.49;97738.84;5101450;28;19924;-64
2022/12/24 07:27:23;;;;;;;;;;;;;;;9.27;77.74;97745.00;5093760;28;19924;-64
2022/12/24 07:29:51;;;;;;;;;;;;;;;9.27;77.99;97745.00;5082035;28;20388;-66
2022/12/24 07:32:19;;;;;;;;;;;;;;;9.33;77.87;97748.41;5080574;28;19974;-62
2022/12/24 07:34:47;;;;;;;;;;;;;;;9.39;77.86;97747.97;5085644;28;19931;-63
2022/12/24 07:37:15;;;;;;;;;;;;;;;9.29;77.85;97745.50;5102339;27;19935;-59
2022/12/24 07:39:46;;;;;;;;;;;;;;;9.28;78.60;97754.72;5082874;28;19955;-60
2022/12/24 07:42:14;;;;;;;;;;;;;;;9.29;78.33;97747.41;5099969;27;19931;-60
2022/12/24 07:44:44;;;;;;;;;;;;;;;9.37;78.31;97743.94;5092665;28;19931;-59
2022/12/24 07:47:12;;;;;;;;;;;;;;;9.26;78.86;97740.66;5066026;27;19938;-62
2022/12/24 07:49:40;;;;;;;;;;;;;;;9.22;78.99;97747.84;5068553;28;19939;-60
2022/12/24 07:52:08;;;;;;;;;;;;;;;9.38;78.08;97743.66;5085915;28;19928;-59
2022/12/24 07:54:42;;;;;;;;;;;;;;;9.33;78.05;97745.69;5098718;28;19928;-60
2022/12/24 07:57:10;;;;;;;;;;;;;;;9.20;78.63;97736.47;5092295;27;19939;-62
2022/12/24 07:59:40;;;;;;;;;;;;;;;9.33;78.27;97740.25;5095905;27;19924;-59
2022/12/24 08:02:10;;;;;;;;;;;;;;;9.26;78.13;97751.50;5094490;28;20012;-59
2022/12/24 08:04:45;;;;;;;;;;;;;;;9.28;77.90;97752.03;5098419;28;19924;-61
2022/12/24 08:07:12;;;;;;;;;;;;;;;9.30;77.81;97754.41;5082280;28;20281;-59
2022/12/24 08:12:33;;;;;;;;;;;;;;;9.47;77.67;97759.97;5104037;28;19924;-59
2022/12/24 08:15:25;;;;;;;;;;;;;;;9.70;77.15;97777.06;5098074;28;19932;-59
2022/12/24 08:17:55;;;;;;;;;;;;;;;9.59;76.83;97771.09;5098940;28;19928;-60
2022/12/24 08:20:23;;;;;;;;;;;;;;;9.71;76.62;97779.47;5099780;28;19924;-58
2022/12/24 08:22:52;;;;;;;;;;;;;;;9.63;76.32;97776.69;5101954;28;19931;-59
2022/12/24 08:25:20;;;;;;;;;;;;;;;9.82;76.11;97776.50;5100477;28;20276;-60
2022/12/24 08:27:49;;;;;;;;;;;;;;;9.72;76.03;97791.13;5080652;28;19985;-59
2022/12/24 08:30:17;;;;;;;;;;;;;;;9.69;76.67;97794.44;5098457;28;20222;-59
2022/12/24 08:32:48;;;;;;;;;;;;;;;9.75;75.90;97792.41;5102312;28;20009;-59
2022/12/24 08:35:17;;;;;;;;;;;;;;;9.73;76.66;97795.44;5099454;28;19932;-60
2022/12/24 08:37:45;;;;;;;;;;;;;;;9.76;76.25;97799.44;5099905;28;19924;-59
2022/12/24 08:40:14;;;;;;;;;;;;;;;9.77;76.62;97804.56;5078295;28;19931;-59
2022/12/24 08:42:41;;;;;;;;;;;;;;;9.74;76.64;97807.88;5101858;27;19951;-59
2022/12/24 08:48:07;;;;;;;;;;;;;;;9.76;76.57;97810.31;5099890;28;19932;-58
2022/12/24 08:50:38;;;;;;;;;;;;;;;9.75;76.21;97814.09;5096926;28;19924;-60
2022/12/24 08:53:06;;;;;;;;;;;;;;;9.76;76.87;97819.25;5076712;28;19983;-60
2022/12/24 08:55:34;;;;;;;;;;;;;;;9.70;76.63;97829.41;5077842;28;19936;-62
2022/12/24 08:58:02;;;;;;;;;;;;;;;9.90;75.57;97830.81;5093447;28;19924;-60
2022/12/24 09:00:56;;;;;;;;;;;;;;;9.77;76.02;97823.56;5099355;28;20019;-60
2022/12/24 09:03:24;;;;;;;;;;;;;;;9.85;75.63;97839.06;5094806;28;20384;-60
2022/12/24 09:05:56;;;;;;;;;;;;;;;9.74;75.98;97843.16;5080631;28;20023;-60
2022/12/24 09:08:24;;;;;;;;;;;;;;;9.74;76.22;97835.00;5107589;28;20257;-60
2022/12/24 09:10:52;;;;;;;;;;;;;;;9.74;75.77;97843.16;5094207;28;19984;-60
2022/12/24 09:13:20;;;;;;;;;;;;;;;9.82;75.69;97847.84;5099817;28;19924;-61
2022/12/24 09:15:54;;;;;;;;;;;;;;;9.70;75.63;97845.69;5102329;28;19928;-60
2022/12/24 09:18:22;;;;;;;;;;;;;;;9.77;75.72;97849.88;5105027;28;19932;-60
2022/12/24 09:20:50;;;;;;;;;;;;;;;9.78;75.45;97841.44;5101378;28;19923;-60
2022/12/24 09:23:25;;;;;;;;;;;;;;;9.75;76.30;97854.78;5077952;28;19924;-60
2022/12/24 09:25:53;;;;;;;;;;;;;;;9.84;75.61;97859.19;5084290;28;19932;-60
2022/12/24 09:28:22;;;;;;;;;;;;;;;9.86;75.88;97867.84;5057128;28;19925;-61
2022/12/24 09:30:59;;;;;;;;;;;;;;;9.99;75.29;97866.16;5059826;28;20305;-60
2022/12/24 09:33:27;;;;;;;;;;;;;;;10.11;74.81;97873.75;5052822;28;20012;-60
2022/12/24 09:35:55;;;;;;;;;;;;;;;10.14;74.34;97870.44;5061325;28;20420;-61
2022/12/24 09:38:25;;;;;;;;;;;;;;;10.12;74.18;97873.47;5062468;28;19931;-64
2022/12/24 09:40:53;;;;;;;;;;;;;;;10.15;73.53;97878.25;5065903;28;20412;-60
2022/12/24 09:43:22;;;;;;;;;;;;;;;10.25;73.08;97868.28;5066230;28;19928;-62
2022/12/24 09:45:55;;;;;;;;;;;;;;;10.18;73.21;97868.72;5064322;28;19929;-60
2022/12/24 09:48:25;;;;;;;;;;;;;;;10.16;73.44;97865.47;5065707;28;19931;-60
2022/12/24 09:50:55;;;;;;;;;;;;;;;10.08;73.28;97858.09;5062808;28;19924;-60
2022/12/24 09:53:48;;;;;;;;;;;;;;;10.07;73.95;97862.72;5066608;28;19931;-61
2022/12/24 09:56:18;;;;;;;;;;;;;;;10.07;73.22;97872.78;5068062;28;19925;-63
2022/12/24 09:58:49;;;;;;;;;;;;;;;10.00;73.57;97864.25;5060949;28;19986;-60
2022/12/24 10:01:18;;;;;;;;;;;;;;;10.03;73.42;97863.66;5060338;28;19928;-60
2022/12/24 10:03:46;;;;;;;;;;;;;;;9.97;73.72;97866.50;5056486;28;19924;-60
2022/12/24 10:06:15;;;;;;;;;;;;;;;10.01;73.55;97874.00;5053819;28;19932;-61
2022/12/24 10:08:53;;;;;;;;;;;;;;;9.94;73.86;97866.28;5057403;28;19925;-62
2022/12/24 10:11:24;;;;;;;;;;;;;;;10.05;72.89;97862.22;5059430;28;20278;-61
2022/12/24 10:14:00;;;;;;;;;;;;;;;10.06;72.86;97863.00;5056900;28;19932;-61
2022/12/24 10:16:29;;;;;;;;;;;;;;;10.14;72.38;97871.22;5058969;28;19924;-63
2022/12/24 10:19:00;;;;;;;;;;;;;;;10.06;73.00;97871.97;5061542;28;20340;-61
2022/12/24 10:21:32;;;;;;;;;;;;;;;10.06;72.87;97865.72;5067728;28;19924;-61
2022/12/24 10:24:01;;;;;;;;;;;;;;;10.12;73.05;97873.47;5059504;28;19924;-60
2022/12/24 10:26:32;;;;;;;;;;;;;;;10.08;73.43;97871.66;5063296;28;19947;-60
2022/12/24 10:29:06;;;;;;;;;;;;;;;10.13;73.59;97877.78;5065780;28;19947;-61
2022/12/24 10:31:35;;;;;;;;;;;;;;;10.27;72.03;97877.72;5068265;28;20377;-61
2022/12/24 10:34:05;;;;;;;;;;;;;;;10.38;71.48;97887.22;5062015;28;19929;-60
2022/12/24 10:36:33;;;;;;;;;;;;;;;10.43;72.08;97884.38;5058617;28;19932;-60
2022/12/24 10:39:26;;;;;;;;;;;;;;;10.49;71.61;97888.59;5071021;28;19925;-60
2022/12/24 10:41:56;;;;;;;;;;;;;;;10.56;71.01;97882.69;5062309;28;19924;-60
2022/12/24 10:44:25;;;;;;;;;;;;;;;10.61;71.05;97881.78;5058707;28;19947;-63
2022/12/24 10:47:18;;;;;;;;;;;;;;;10.60;70.74;97883.69;5065404;28;19935;-60
2022/12/24 10:49:47;;;;;;;;;;;;;;;10.78;70.10;97894.63;5062631;28;19931;-60
2022/12/24 10:52:16;;;;;;;;;;;;;;;10.81;69.98;97894.00;5063556;28;19962;-60
2022/12/24 10:54:59;;;;;;;;;;;;;;;10.84;69.33;97888.75;5057191;28;19931;-61
2022/12/24 10:57:29;;;;;;;;;;;;;;;10.81;69.91;97883.91;5060115;28;19925;-60
2022/12/24 10:59:57;;;;;;;;;;;;;;;10.90;69.46;97895.63;5062614;28;19939;-61
2022/12/24 11:02:26;;;;;;;;;;;;;;;10.88;69.28;97888.94;5059772;28;19925;-60
2022/12/24 11:04:55;;;;;;;;;;;;;;;10.93;68.34;97902.38;5056924;28;20312;-60
2022/12/24 11:07:23;;;;;;;;;;;;;;;10.87;69.15;97909.06;5064524;28;19932;-60
2022/12/24 11:09:54;;;;;;;;;;;;;;;10.80;69.72;97912.22;5070083;28;19932;-60
2022/12/24 11:12:23;;;;;;;;;;;;;;;10.80;69.32;97911.41;5061728;28;19979;-60
2022/12/24 11:14:58;;;;;;;;;;;;;;;10.83;69.00;97905.38;5062342;28;19925;-61
2022/12/24 11:17:28;;;;;;;;;;;;;;;10.78;69.25;97906.31;5055220;28;19932;-61
2022/12/24 11:19:58;;;;;;;;;;;;;;;10.91;68.84;97899.94;5053738;28;19924;-60
2022/12/24 11:22:27;;;;;;;;;;;;;;;10.89;68.49;97902.19;5061056;28;19924;-60
2022/12/24 11:25:22;;;;;;;;;;;;;;;10.94;68.56;97898.53;5075134;28;20349;-62
2022/12/24 11:27:51;;;;;;;;;;;;;;;10.97;68.66;97898.72;5104579;28;19924;-62
2022/12/24 11:30:22;;;;;;;;;;;;;;;11.02;68.39;97895.03;5102215;28;19932;-61
2022/12/24 11:32:51;;;;;;;;;;;;;;;11.26;67.59;97891.94;5080545;28;19977;-61
2022/12/24 11:35:21;;;;;;;;;;;;;;;11.44;66.79;97907.16;5114229;28;19935;-61
2022/12/24 11:37:50;;;;;;;;;;;;;;;11.57;66.80;97891.03;5109635;28;19974;-61
2022/12/24 11:40:20;;;;;;;;;;;;;;;11.53;66.63;97893.59;5111066;28;19935;-62
2022/12/24 11:42:52;;;;;;;;;;;;;;;11.50;66.07;97896.94;5119393;28;20361;-66
2022/12/24 11:45:23;;;;;;;;;;;;;;;11.43;65.87;97893.88;5109966;28;19946;-62
2022/12/24 11:47:52;;;;;;;;;;;;;;;11.37;65.88;97889.72;5110425;28;19989;-62
2022/12/24 11:50:22;;;;;;;;;;;;;;;11.23;67.20;97893.34;5086128;28;20690;-61
2022/12/24 11:52:52;;;;;;;;;;;;;;;11.27;66.60;97890.81;5103352;28;19924;-62
2022/12/24 11:55:22;;;;;;;;;;;;;;;11.32;66.90;97890.66;5099834;28;19935;-61
2022/12/24 11:57:52;;;;;;;;;;;;;;;11.37;65.82;97890.50;5101482;28;19932;-62
2022/12/24 12:00:21;;;;;;;;;;;;;;;11.33;66.26;97897.69;5086001;28;19924;-61
2022/12/24 12:02:50;;;;;;;;;;;;;;;11.30;65.26;97894.81;5079461;28;20157;-62
2022/12/24 12:05:18;;;;;;;;;;;;;;;11.20;66.45;97899.44;5087762;28;20660;-62
2022/12/24 12:07:46;;;;;;;;;;;;;;;11.27;66.21;97897.03;5097905;28;19928;-61
2022/12/24 12:10:16;;;;;;;;;;;;;;;11.25;66.02;97899.28;5079232;28;19928;-61
2022/12/24 12:12:50;;;;;;;;;;;;;;;11.22;65.91;97899.91;5095157;28;19935;-62
2022/12/24 12:15:19;;;;;;;;;;;;;;;11.23;65.95;97906.16;5076074;28;19924;-62
2022/12/24 12:17:50;;;;;;;;;;;;;;;11.18;66.76;97903.56;5100737;28;20319;-62
2022/12/24 12:20:19;;;;;;;;;;;;;;;11.22;66.61;97893.66;5112026;28;20265;-62
2022/12/24 12:22:51;;;;;;;;;;;;;;;11.32;65.97;97898.81;5104541;28;19931;-62
2022/12/24 12:25:45;;;;;;;;;;;;;;;11.28;65.67;97897.84;5104898;28;19981;-62
2022/12/24 12:28:16;;;;;;;;;;;;;;;11.33;65.72;97905.06;5098248;28;20006;-63
2022/12/24 12:30:45;;;;;;;;;;;;;;;11.31;65.90;97905.38;5094557;28;19924;-61
2022/12/24 12:33:16;;;;;;;;;;;;;;;11.40;65.00;97897.22;5094335;28;19931;-63
2022/12/24 12:35:44;;;;;;;;;;;;;;;11.35;65.84;97908.28;5085274;28;19928;-61
2022/12/24 12:38:13;;;;;;;;;;;;;;;11.43;65.30;97908.28;5096300;28;20401;-62
2022/12/24 12:40:45;;;;;;;;;;;;;;;11.37;65.43;97903.31;5095591;28;19932;-61
2022/12/24 12:43:16;;;;;;;;;;;;;;;11.35;65.64;97900.13;5082672;28;19924;-62
2022/12/24 12:45:45;;;;;;;;;;;;;;;11.43;65.00;97899.31;5092523;28;19998;-62
2022/12/24 12:48:18;;;;;;;;;;;;;;;11.37;65.56;97906.84;5096992;28;19924;-61
2022/12/24 12:50:49;;;;;;;;;;;;;;;11.32;65.38;97912.41;5100556;28;19928;-61
2022/12/24 12:53:23;;;;;;;;;;;;;;;11.39;65.92;97909.22;5083387;28;19927;-61
2022/12/24 12:56:20;;;;;;;;;;;;;;;11.41;66.04;97902.38;5101628;28;20085;-61
2022/12/24 12:58:50;;;;;;;;;;;;;;;11.47;65.12;97895.66;5087775;28;19931;-62
2022/12/24 13:01:22;;;;;;;;;;;;;;;11.45;65.11;97913.41;5095851;28;19932;-61
2022/12/24 13:04:22;;;;;;;;;;;;;;;11.25;65.32;97909.38;5099051;28;19931;-61
2022/12/24 13:07:04;;;;;;;;;;;;;;;11.21;65.09;97925.50;5093963;28;19932;-63
2022/12/24 13:09:47;;;;;;;;;;;;;;;11.16;65.76;97911.25;5079547;28;19939;-62
2022/12/24 13:12:19;;;;;;;;;;;;;;;11.06;65.94;97906.09;5077680;28;19932;-62
2022/12/24 13:14:51;;;;;;;;;;;;;;;11.06;66.01;97911.53;5103255;28;19924;-61
2022/12/24 13:17:44;;;;;;;;;;;;;;;11.00;66.65;97914.38;5099852;28;19928;-61
2022/12/24 13:20:17;;;;;;;;;;;;;;;10.93;67.10;97918.69;5100523;28;20006;-63
2022/12/24 13:22:53;;;;;;;;;;;;;;;10.92;66.86;97917.06;5079748;28;19932;-62
2022/12/24 13:25:22;;;;;;;;;;;;;;;10.96;67.26;97921.56;5080077;28;19959;-62
2022/12/24 13:27:51;;;;;;;;;;;;;;;11.13;66.49;97923.56;5099272;28;19930;-63
2022/12/24 13:30:33;;;;;;;;;;;;;;;11.15;66.46;97926.78;5099359;28;19962;-62
2022/12/24 13:33:03;;;;;;;;;;;;;;;11.14;66.49;97936.03;5094722;27;21419;-61
2022/12/24 13:35:34;;;;;;;;;;;;;;;11.16;66.27;97933.81;5079648;28;19970;-62
2022/12/24 13:38:24;;;;;;;;;;;;;;;11.11;66.32;97935.88;5078083;28;20008;-61
2022/12/24 13:40:52;;;;;;;;;;;;;;;11.04;66.68;97930.88;5091636;27;20388;-63
2022/12/24 13:43:20;;;;;;;;;;;;;;;10.98;66.39;97935.66;5096578;27;19924;-63
2022/12/24 13:45:48;;;;;;;;;;;;;;;11.02;66.44;97930.38;5097981;28;20007;-62
2022/12/24 13:48:28;;;;;;;;;;;;;;;11.10;66.56;97939.69;5076385;28;19989;-62